SKLO2: Skiatook Lake

Data processed at Tue Sep 02 23:01:49 2014 Central Daylight Time


All information presented herein is the property of the government of the United States of America and may be revised or deleted at any time without prior notice.
Dissemination of this information without the expressed written consent of the Public Affairs Office, Tulsa District U.S. Army Corps of Engineers is strictly prohibited.
These data are gathered electronically and, as presented, have not undergone any form of quality control. These data are not guaranteed to be valid or correct.
Go to home page.
Go to station list.
Go to station map.

Upstream stations:

Downstream station: Previous Day
Next Day
Current Day

Display graphics.
Display DCP transmissions.


    
    SHEF ID:       SKLO2     Skiatook Lake
    STATION TYPE:  RESERVOIR
    Flood Control Pool:  Bottom =  714.00, Top =  729.00
    
                   PRECIP ELEVATION   STORAGE    INFLOW   RELEASE  AIR-TEMP  WIND-DIRWIND-SPEED REL-HUMID SOLAR-RAD   VOLTAGE  BAT-LOAD
                   INCHES      FEET      ACFT       CFS       CFS     DEG-F   DEGREES       MPH   PERCENT      W/M2     VOLTS     VOLTS
                     GOES      GOES      GOES  COMPRESQ  COMPRESQ      GOES      GOES      GOES      GOES      GOES      GOES      GOES
       (Cen)
    09/02 01:00      0.00    700.20    198799       103         0     72.99     72.66      5.77     67.54      0.00     12.99     12.73
    09/02 02:00      0.00    700.22    198959         1       109     71.56     15.10      4.79     71.80      0.00     12.97     12.73
    09/02 03:00      0.00    700.21    198879        14       109     71.53     39.99      4.94     74.89      0.00     12.96     12.65
    09/02 04:00      0.00    700.21    198879        14       109     70.93     56.78      6.66     80.53      0.00     12.94     12.65
    09/02 05:00      0.00    700.19    198718        27       109     70.70     46.97      9.85     82.29      0.00     12.91     12.65
    09/02 06:00      0.00    700.17    198558        41       109     68.99     52.38     11.89     76.32      0.00     12.89     12.65
    09/02 07:00      0.00    700.19    198718       666       109     68.45     52.46     12.66     76.99      0.00     12.86     12.65
    09/02 08:00      0.63    700.24    199119       858       109     66.74     34.67     11.87     82.18      0.00     12.86     12.65
    09/02 09:00      0.27    700.31    199681       865         0     63.57    130.76     11.32     92.59      0.00     12.85     12.57
    09/02 10:00      0.00    700.26    199280       852       109     64.22    203.98      8.53     93.35      0.00     12.85     12.57
    09/02 11:00      0.00    700.29    199520       839       109     66.61    194.89     14.80     86.93      1.62     12.86     12.09
    09/02 12:00      0.00    700.26    199280       214       109     66.07    145.66      8.93     87.47     48.65     13.10     12.57
    09/02 13:00      0.00    700.28    199440         9       109     65.91     75.66      4.77     90.35    143.97     13.50     12.81
    09/02 14:00      0.00    700.24    199119         2       109     67.44    161.36      5.34     85.79    483.73     13.52     13.21
    09/02 15:00      0.00    700.26    199280         1       109     70.16    165.47      6.94     76.68    569.62     14.01     13.37
    09/02 16:00      0.00    700.26    199280         1       109     71.56    172.39      5.54     73.29    580.42     13.51     13.37
    09/02 17:00      0.00    700.24    199119         0       109     74.12    145.05      4.07     69.27    562.28     13.46     13.37
    09/02 18:00      0.00    700.25    199200         0       109     75.43    131.68      5.28     65.21    406.09     13.49     13.44
    09/02 19:00      0.00    700.24    199119         1       109     75.29    123.46      6.23     66.25    190.84     13.53     13.29
    09/02 20:00      0.00    700.24    199119         1       109     73.69    122.59      7.45     70.16     37.18     13.12     13.21
    09/02 21:00      0.00    700.23    199039         1       109     70.86    123.36      7.77     78.12      0.00     13.06     12.81
    09/02 22:00      0.00    700.22    198959         1       109     68.99     87.07      5.31     81.71      0.00     13.04     12.81
    09/02 23:00      0.00    700.23    199039         1      ----     67.14     34.95      3.15     88.28      0.00     13.01     12.73
    09/03 00:00      ----      ----      ----      ----      ----      ----      ----      ----      ----      ----      ----      ----